createdAt,value
2022-11-21T00:00:52.232Z,99907.38
2022-11-21T00:03:18.771Z,99897.81
2022-11-21T00:05:47.491Z,99892.91
2022-11-21T00:08:16.858Z,99893.22
2022-11-21T00:10:43.849Z,99878.56
2022-11-21T00:13:16.207Z,99882.56
2022-11-21T00:15:43.820Z,99875.59
2022-11-21T00:18:13.991Z,99867.72
2022-11-21T00:20:41.936Z,99866.88
2022-11-21T00:23:08.978Z,99859.97
2022-11-21T00:25:36.181Z,99855.66
2022-11-21T00:28:02.966Z,99857.16
2022-11-21T00:30:29.507Z,99852.31
2022-11-21T00:32:57.906Z,99855.34
2022-11-21T00:35:24.367Z,99844.63
2022-11-21T00:37:50.904Z,99841.63
2022-11-21T00:40:18.176Z,99839.72
2022-11-21T00:42:44.778Z,99842.78
2022-11-21T00:45:12.013Z,99840.47
2022-11-21T00:47:38.466Z,99839.88
2022-11-21T00:50:05.265Z,99842.50
2022-11-21T00:52:31.704Z,99839.38
2022-11-21T00:54:58.204Z,99834.63
2022-11-21T00:57:24.720Z,99827.97
2022-11-21T00:59:51.146Z,99829.56
2022-11-21T01:02:17.703Z,99830.72
2022-11-21T01:04:44.337Z,99829.78
2022-11-21T01:07:13.420Z,99822.47
2022-11-21T01:09:39.945Z,99832.63
2022-11-21T01:12:06.513Z,99826.88
2022-11-21T01:14:32.933Z,99827.59
2022-11-21T01:16:59.529Z,99819.72
2022-11-21T01:19:25.998Z,99812.69
2022-11-21T01:21:52.459Z,99818.56
2022-11-21T01:24:18.881Z,99818.88
2022-11-21T01:26:45.304Z,99814.97
2022-11-21T01:29:11.842Z,99809.84
2022-11-21T01:31:38.286Z,99809.56
2022-11-21T01:34:04.755Z,99812.16
2022-11-21T01:36:33.422Z,99801.41
2022-11-21T01:39:05.474Z,99805.81
2022-11-21T01:41:35.539Z,99803.50
2022-11-21T01:44:07.153Z,99803.19
2022-11-21T01:46:33.553Z,99802.03
2022-11-21T01:48:59.934Z,99807.59
2022-11-21T01:51:32.999Z,99802.91
2022-11-21T01:54:14.374Z,99806.56
2022-11-21T01:56:59.551Z,99804.94
2022-11-21T01:59:34.675Z,99795.69
2022-11-21T02:02:03.675Z,99798.09
2022-11-21T02:04:32.809Z,99788.22
2022-11-21T02:07:24.824Z,99798.97
2022-11-21T02:09:56.734Z,99801.56
2022-11-21T02:12:29.906Z,99789.72
2022-11-21T02:14:57.651Z,99798.56
2022-11-21T02:17:26.635Z,99797.34
2022-11-21T02:19:57.662Z,99786.47
2022-11-21T02:22:32.881Z,99792.00
2022-11-21T02:25:15.687Z,99791.00
2022-11-21T02:27:42.414Z,99789.22
2022-11-21T02:30:10.506Z,99791.75
2022-11-21T02:32:45.181Z,99783.31
2022-11-21T02:35:11.595Z,99781.09
2022-11-21T02:37:38.063Z,99768.16
2022-11-21T02:40:12.838Z,99763.88
2022-11-21T02:42:52.899Z,99757.56
2022-11-21T02:45:33.179Z,99757.34
2022-11-21T02:48:03.985Z,99750.41
2022-11-21T02:50:36.261Z,99747.25
2022-11-21T02:53:04.858Z,99739.25
2022-11-21T02:55:31.674Z,99748.78
2022-11-21T02:58:03.215Z,99744.69
2022-11-21T03:00:32.123Z,99747.25
2022-11-21T03:02:58.509Z,99749.44
2022-11-21T03:05:25.093Z,99751.63
2022-11-21T03:07:51.530Z,99747.59
2022-11-21T03:10:18.008Z,99749.44
2022-11-21T03:12:44.579Z,99747.56
2022-11-21T03:15:13.489Z,99748.50
2022-11-21T03:17:40.778Z,99737.03
2022-11-21T03:20:08.280Z,99744.59
2022-11-21T03:22:35.004Z,99742.38
2022-11-21T03:25:01.520Z,99739.16
2022-11-21T03:27:28.144Z,99734.97
2022-11-21T03:29:54.555Z,99746.44
2022-11-21T03:32:20.973Z,99740.84
2022-11-21T03:34:47.396Z,99741.06
2022-11-21T03:37:13.772Z,99750.38
2022-11-21T03:39:40.176Z,99747.84
2022-11-21T03:42:06.599Z,99743.53
2022-11-21T03:44:33.124Z,99749.31
2022-11-21T03:46:59.515Z,99756.88
2022-11-21T03:49:25.923Z,99761.75
2022-11-21T03:51:52.361Z,99766.50
2022-11-21T03:54:18.800Z,99774.09
2022-11-21T03:56:45.278Z,99772.34
2022-11-21T03:59:11.833Z,99765.63
2022-11-21T04:01:38.707Z,99771.34
2022-11-21T04:04:05.652Z,99765.50
2022-11-21T04:06:32.257Z,99767.94
2022-11-21T04:08:58.669Z,99776.50
2022-11-21T04:11:25.257Z,99770.19
2022-11-21T04:13:54.470Z,99769.66
2022-11-21T04:16:21.188Z,99766.19
2022-11-21T04:18:47.823Z,99772.69
2022-11-21T04:21:14.374Z,99761.97
2022-11-21T04:23:40.935Z,99770.50
2022-11-21T04:26:07.386Z,99763.25
2022-11-21T04:28:33.828Z,99773.50
2022-11-21T04:31:09.953Z,99767.50
2022-11-21T04:33:37.527Z,99772.41
2022-11-21T04:36:04.082Z,99762.22
2022-11-21T04:38:30.542Z,99771.84
2022-11-21T04:40:56.984Z,99770.38
2022-11-21T04:43:23.410Z,99764.72
2022-11-21T04:45:49.949Z,99763.13
2022-11-21T04:48:16.501Z,99762.69
2022-11-21T04:50:42.946Z,99769.13
2022-11-21T04:53:09.362Z,99769.03
2022-11-21T04:55:35.774Z,99775.66
2022-11-21T04:58:02.194Z,99771.03
2022-11-21T05:00:28.943Z,99771.13
2022-11-21T05:02:55.397Z,99768.31
2022-11-21T05:05:21.806Z,99768.09
2022-11-21T05:07:48.210Z,99763.47
2022-11-21T05:10:14.845Z,99770.00
2022-11-21T05:12:59.760Z,99769.16
2022-11-21T05:15:26.244Z,99770.00
2022-11-21T05:17:52.656Z,99770.44
2022-11-21T05:20:19.285Z,99772.63
2022-11-21T05:22:49.904Z,99775.59
2022-11-21T05:25:16.752Z,99780.75
2022-11-21T05:27:43.250Z,99774.09
2022-11-21T05:30:11.022Z,99778.00
2022-11-21T05:32:37.828Z,99782.41
2022-11-21T05:35:04.399Z,99776.22
2022-11-21T05:37:30.965Z,99776.97
2022-11-21T05:39:57.467Z,99775.06
2022-11-21T05:42:43.849Z,99775.28
2022-11-21T05:45:10.675Z,99768.88
2022-11-21T05:47:37.248Z,99769.63
2022-11-21T05:50:04.163Z,99771.50
2022-11-21T05:52:30.716Z,99768.88
2022-11-21T05:54:57.128Z,99765.19
2022-11-21T05:57:23.552Z,99764.16
2022-11-21T05:59:49.948Z,99765.63
2022-11-21T06:02:35.038Z,99760.97
2022-11-21T06:05:01.469Z,99771.19
2022-11-21T06:07:28.179Z,99770.47
2022-11-21T06:09:54.616Z,99770.22
2022-11-21T06:12:25.207Z,99778.44
2022-11-21T06:14:52.198Z,99780.09
2022-11-21T06:17:18.669Z,99772.97
2022-11-21T06:19:45.144Z,99779.47
2022-11-21T06:22:11.556Z,99775.06
2022-11-21T06:24:37.977Z,99776.44
2022-11-21T06:27:04.393Z,99771.09
2022-11-21T06:29:30.836Z,99777.41
2022-11-21T06:31:57.286Z,99774.22
2022-11-21T06:34:26.313Z,99774.22
2022-11-21T06:36:53.433Z,99773.28
2022-11-21T06:39:19.973Z,99782.88
2022-11-21T06:41:51.153Z,99782.00
2022-11-21T06:44:18.559Z,99781.28
2022-11-21T06:46:50.668Z,99780.94
2022-11-21T06:49:17.707Z,99776.75
2022-11-21T06:51:44.295Z,99781.38
2022-11-21T06:54:16.259Z,99780.13
2022-11-21T06:56:43.487Z,99783.38
2022-11-21T06:59:10.029Z,99790.09
2022-11-21T07:01:36.616Z,99798.19
2022-11-21T07:04:03.099Z,99802.41
2022-11-21T07:06:29.525Z,99802.00
2022-11-21T07:09:25.221Z,99817.47
2022-11-21T07:11:43.061Z,99814.84
2022-11-21T07:14:09.764Z,99806.84
2022-11-21T07:16:36.687Z,99820.72
2022-11-21T07:19:03.255Z,99810.81
2022-11-21T07:21:29.727Z,99818.00
2022-11-21T07:23:56.207Z,99815.66
2022-11-21T07:26:22.605Z,99820.72
2022-11-21T07:28:49.107Z,99825.47
2022-11-21T07:31:15.718Z,99820.84
2022-11-21T07:33:46.746Z,99838.41
2022-11-21T07:36:13.649Z,99829.25
2022-11-21T07:38:41.475Z,99833.59
2022-11-21T07:41:08.635Z,99830.94
2022-11-21T07:43:35.091Z,99838.72
2022-11-21T07:46:01.562Z,99840.09
2022-11-21T07:48:28.021Z,99839.88
2022-11-21T07:50:54.417Z,99839.22
2022-11-21T07:53:20.917Z,99838.84
2022-11-21T07:55:47.398Z,99842.81
2022-11-21T07:58:16.038Z,99851.22
2022-11-21T08:00:45.156Z,99849.53
2022-11-21T08:03:12.822Z,99860.00
2022-11-21T08:05:42.443Z,99857.66
2022-11-21T08:08:10.459Z,99850.28
2022-11-21T08:10:38.893Z,99860.28
2022-11-21T08:13:05.712Z,99854.41
2022-11-21T08:15:32.501Z,99857.94
2022-11-21T08:17:59.035Z,99861.09
2022-11-21T08:20:25.478Z,99859.22
2022-11-21T08:22:51.949Z,99854.72
2022-11-21T08:25:18.358Z,99860.50
2022-11-21T08:27:44.909Z,99860.06
2022-11-21T08:30:12.197Z,99869.69
2022-11-21T08:32:38.668Z,99874.06
2022-11-21T08:35:05.561Z,99876.19
2022-11-21T08:37:32.167Z,99880.94
2022-11-21T08:39:59.003Z,99882.25
2022-11-21T08:42:26.008Z,99885.78
2022-11-21T08:44:52.523Z,99889.53
2022-11-21T08:47:20.425Z,99893.28
2022-11-21T08:49:47.775Z,99898.34
2022-11-21T08:52:17.472Z,99894.63
2022-11-21T08:54:45.322Z,99897.47
2022-11-21T08:57:12.625Z,99908.28
2022-11-21T08:59:39.189Z,99904.97
2022-11-21T09:02:05.692Z,99904.38
2022-11-21T09:04:32.243Z,99906.41
2022-11-21T09:06:58.710Z,99901.47
2022-11-21T09:09:25.783Z,99906.31
2022-11-21T09:11:52.446Z,99910.81
2022-11-21T09:14:37.866Z,99908.16
2022-11-21T09:17:23.048Z,99907.19
2022-11-21T09:19:49.537Z,99912.03
2022-11-21T09:22:15.924Z,99911.38
2022-11-21T09:24:42.337Z,99918.75
2022-11-21T09:27:08.753Z,99920.72
2022-11-21T09:29:35.172Z,99918.59
2022-11-21T09:32:01.599Z,99916.97
2022-11-21T09:34:28.242Z,99926.88
2022-11-21T09:36:55.528Z,99918.69
2022-11-21T09:39:22.229Z,99928.22
2022-11-21T09:42:03.644Z,99925.34
2022-11-21T09:44:39.228Z,99927.44
2022-11-21T09:47:20.096Z,99927.88
2022-11-21T09:49:51.514Z,99931.00
2022-11-21T09:52:19.198Z,99928.97
2022-11-21T09:54:53.635Z,99930.06
2022-11-21T09:57:24.432Z,99931.94
2022-11-21T09:59:52.052Z,99937.09
2022-11-21T10:02:21.399Z,99935.41
2022-11-21T10:04:48.794Z,99940.28
2022-11-21T10:07:29.211Z,99946.38
2022-11-21T10:10:01.283Z,99943.69
2022-11-21T10:13:00.132Z,99945.72
2022-11-21T10:15:52.470Z,99947.47
2022-11-21T10:18:52.709Z,99955.03
2022-11-21T10:21:48.878Z,99956.53
2022-11-21T10:24:30.915Z,99961.50
2022-11-21T10:27:11.692Z,99963.09
2022-11-21T10:29:53.206Z,99971.75
2022-11-21T10:32:37.422Z,99978.44
2022-11-21T10:35:22.112Z,99974.53
2022-11-21T10:37:52.673Z,99971.03
2022-11-21T10:40:43.657Z,99977.72
2022-11-21T10:43:34.819Z,99973.66
2022-11-21T10:46:01.263Z,99966.63
2022-11-21T10:48:27.686Z,99967.47
2022-11-21T10:51:25.116Z,99973.63
2022-11-21T10:54:29.116Z,99971.50
2022-11-21T10:57:06.090Z,99975.47
2022-11-21T10:59:32.690Z,99973.22
2022-11-21T11:02:12.794Z,99974.47
2022-11-21T11:04:47.416Z,99974.94
2022-11-21T11:07:27.653Z,99977.16
2022-11-21T11:10:27.547Z,99977.16
2022-11-21T11:13:44.004Z,99982.22
2022-11-21T11:16:18.456Z,99979.91
2022-11-21T11:18:51.629Z,99989.19
2022-11-21T11:21:24.761Z,99982.47
2022-11-21T11:23:53.463Z,99989.72
2022-11-21T11:26:31.387Z,99981.69
2022-11-21T11:29:15.631Z,99981.06
2022-11-21T11:31:44.013Z,99983.22
2022-11-21T11:34:15.138Z,99979.75
2022-11-21T11:36:50.497Z,99987.34
2022-11-21T11:39:24.922Z,99992.47
2022-11-21T11:42:39.679Z,99986.16
2022-11-21T11:45:30.847Z,99987.78
2022-11-21T11:48:01.406Z,99981.44
2022-11-21T11:50:43.712Z,99974.00
2022-11-21T11:53:35.032Z,99974.13
2022-11-21T11:56:18.769Z,99979.59
2022-11-21T11:58:54.871Z,99970.81
2022-11-21T12:01:25.231Z,99964.31
2022-11-21T12:04:00.014Z,99973.56
2022-11-21T12:06:57.362Z,99976.44
2022-11-21T12:09:39.820Z,99987.91
2022-11-21T12:12:16.248Z,99979.28
2022-11-21T12:15:18.237Z,99983.44
2022-11-21T12:18:15.352Z,99980.78
2022-11-21T12:21:02.777Z,99979.53
2022-11-21T12:23:36.803Z,99978.97
2022-11-21T12:26:28.109Z,99976.97
2022-11-21T12:29:32.512Z,99971.78
2022-11-21T12:32:09.050Z,99974.72
2022-11-21T12:34:41.305Z,99971.78
2022-11-21T12:37:44.661Z,99966.00
2022-11-21T12:40:46.202Z,99972.72
2022-11-21T12:43:19.170Z,99966.81
2022-11-21T12:45:52.800Z,99970.19
2022-11-21T12:48:59.064Z,99969.16
2022-11-21T12:51:50.650Z,99966.56
2022-11-21T12:54:33.230Z,99962.09
2022-11-21T12:57:13.978Z,99967.00
2022-11-21T12:59:49.649Z,99967.84
2022-11-21T13:02:29.425Z,99962.59
2022-11-21T13:04:58.439Z,99951.41
2022-11-21T13:07:29.570Z,99944.25
2022-11-21T13:09:59.030Z,99939.63
2022-11-21T13:13:02.717Z,99943.63
2022-11-21T13:15:40.482Z,99948.72
2022-11-21T13:18:41.729Z,99944.91
2022-11-21T13:21:41.531Z,99935.63
2022-11-21T13:24:08.684Z,99939.63
2022-11-21T13:26:37.937Z,99945.53
2022-11-21T13:29:14.540Z,99953.81
2022-11-21T13:31:41.873Z,99943.50
2022-11-21T13:34:37.341Z,99948.34
2022-11-21T13:37:05.183Z,99944.69
2022-11-21T13:39:33.915Z,99947.00
2022-11-21T13:42:20.906Z,99936.63
2022-11-21T13:44:48.121Z,99928.03
2022-11-21T13:47:26.393Z,99923.84
2022-11-21T13:50:05.408Z,99931.03
2022-11-21T13:52:49.544Z,99933.72
2022-11-21T13:55:54.840Z,99926.97
2022-11-21T13:58:48.862Z,99919.38
2022-11-21T14:01:27.540Z,99918.84
2022-11-21T14:04:12.923Z,99899.66
2022-11-21T14:06:43.416Z,99908.69
2022-11-21T14:09:13.048Z,99907.22
2022-11-21T14:11:48.091Z,99910.72
2022-11-21T14:14:49.699Z,99902.25
2022-11-21T14:17:47.296Z,99902.78
2022-11-21T14:20:22.470Z,99901.16
2022-11-21T14:23:00.273Z,99901.16
2022-11-21T14:25:49.314Z,99912.09
2022-11-21T14:28:25.188Z,99913.59
2022-11-21T14:31:00.141Z,99909.78
2022-11-21T14:33:33.595Z,99910.69
2022-11-21T14:36:03.220Z,99896.88
2022-11-21T14:38:33.011Z,99890.47
2022-11-21T14:41:26.790Z,99890.03
2022-11-21T14:43:58.972Z,99893.41
2022-11-21T14:46:27.570Z,99900.06
2022-11-21T14:48:54.565Z,99896.78
2022-11-21T14:51:24.213Z,99898.16
2022-11-21T14:53:53.573Z,99907.63
2022-11-21T14:56:23.421Z,99910.56
2022-11-21T14:58:51.608Z,99909.31
2022-11-21T15:01:21.950Z,99909.25
2022-11-21T15:04:04.310Z,99913.53
2022-11-21T15:06:39.703Z,99912.34
2022-11-21T15:12:02.441Z,99917.00
2022-11-21T15:15:13.239Z,99918.03
2022-11-21T15:18:03.391Z,99921.44
2022-11-21T15:20:28.214Z,99921.00
2022-11-21T15:22:57.566Z,99916.47
2022-11-21T15:25:47.328Z,99909.03
2022-11-21T15:28:18.287Z,99906.91
2022-11-21T15:30:45.520Z,99914.81
2022-11-21T15:33:17.533Z,99917.22
2022-11-21T15:36:13.821Z,99916.28
2022-11-21T15:38:53.456Z,99911.13
2022-11-21T15:41:19.814Z,99904.44
2022-11-21T15:43:52.241Z,99908.69
2022-11-21T15:46:25.464Z,99914.59
2022-11-21T15:48:55.697Z,99905.06
2022-11-21T15:52:06.217Z,99906.34
2022-11-21T15:54:28.634Z,99903.81
2022-11-21T15:56:55.363Z,99908.03
2022-11-21T15:59:21.783Z,99898.84
2022-11-21T16:01:48.207Z,99905.50
2022-11-21T16:04:14.934Z,99897.63
2022-11-21T16:06:41.550Z,99890.50
2022-11-21T16:09:07.987Z,99894.53
2022-11-21T16:11:43.570Z,99894.81
2022-11-21T16:14:14.266Z,99898.38
2022-11-21T16:16:43.713Z,99898.09
2022-11-21T16:19:11.985Z,99897.66
2022-11-21T16:21:38.906Z,99892.91
2022-11-21T16:24:05.821Z,99882.41
2022-11-21T16:26:33.380Z,99879.84
2022-11-21T16:29:01.047Z,99874.94
2022-11-21T16:31:29.801Z,99874.72
2022-11-21T16:33:56.627Z,99874.31
2022-11-21T16:36:27.180Z,99873.91
2022-11-21T16:38:53.935Z,99880.88
2022-11-21T16:41:22.494Z,99872.59
2022-11-21T16:43:51.302Z,99879.38
2022-11-21T16:46:18.944Z,99882.59
2022-11-21T16:48:45.577Z,99874.88
2022-11-21T16:51:20.213Z,99869.31
2022-11-21T16:53:49.173Z,99869.84
2022-11-21T16:56:16.595Z,99868.63
2022-11-21T16:58:43.283Z,99880.38
2022-11-21T17:01:12.620Z,99888.94
2022-11-21T17:03:40.546Z,99875.63
2022-11-21T17:06:08.025Z,99875.81
2022-11-21T17:08:35.283Z,99877.41
2022-11-21T17:11:11.675Z,99877.69
2022-11-21T17:13:38.194Z,99877.38
2022-11-21T17:16:07.896Z,99874.66
2022-11-21T17:18:34.347Z,99879.44
2022-11-21T17:21:05.266Z,99879.34
2022-11-21T17:23:32.838Z,99880.91
2022-11-21T17:26:04.188Z,99872.56
2022-11-21T17:28:30.640Z,99863.22
2022-11-21T17:30:57.198Z,99854.81
2022-11-21T17:33:23.915Z,99851.91
2022-11-21T17:35:50.733Z,99837.34
2022-11-21T17:38:17.408Z,99847.38
2022-11-21T17:40:44.075Z,99860.31
2022-11-21T17:43:10.611Z,99852.81
2022-11-21T17:45:37.046Z,99856.00
2022-11-21T17:48:03.603Z,99850.94
2022-11-21T17:50:30.062Z,99848.91
2022-11-21T17:52:57.123Z,99848.72
2022-11-21T17:55:23.515Z,99845.16
2022-11-21T17:57:49.985Z,99843.84
2022-11-21T18:00:16.496Z,99838.94
2022-11-21T18:02:43.096Z,99834.72
2022-11-21T18:05:09.706Z,99832.69
2022-11-21T18:07:37.642Z,99820.38
2022-11-21T18:10:20.822Z,99831.09
2022-11-21T18:12:51.492Z,99832.88
2022-11-21T18:15:18.066Z,99841.56
2022-11-21T18:17:44.738Z,99839.72
2022-11-21T18:20:11.467Z,99841.00
2022-11-21T18:22:37.848Z,99837.56
2022-11-21T18:25:04.550Z,99838.38
2022-11-21T18:27:31.030Z,99830.16
2022-11-21T18:29:57.424Z,99827.63
2022-11-21T18:32:24.068Z,99828.56
2022-11-21T18:34:50.533Z,99819.19
2022-11-21T18:37:16.924Z,99805.84
2022-11-21T18:39:43.352Z,99815.44
2022-11-21T18:42:09.766Z,99816.75
2022-11-21T18:44:36.153Z,99803.16
2022-11-21T18:47:11.972Z,99800.94
2022-11-21T18:49:45.976Z,99794.97
2022-11-21T18:52:12.364Z,99789.22
2022-11-21T18:54:39.907Z,99791.16
2022-11-21T18:57:06.361Z,99790.13
2022-11-21T18:59:32.787Z,99790.25
2022-11-21T19:01:59.286Z,99783.63
2022-11-21T19:04:25.843Z,99776.47
2022-11-21T19:06:52.314Z,99774.03
2022-11-21T19:09:18.853Z,99784.69
2022-11-21T19:11:45.361Z,99789.63
2022-11-21T19:14:11.845Z,99784.53
2022-11-21T19:16:38.349Z,99787.50
2022-11-21T19:21:56.963Z,99788.06
2022-11-21T19:24:24.475Z,99780.50
2022-11-21T19:26:51.013Z,99768.41
2022-11-21T19:29:17.741Z,99755.41
2022-11-21T19:31:46.009Z,99752.63
2022-11-21T19:34:16.548Z,99748.09
2022-11-21T19:36:43.352Z,99746.88
2022-11-21T19:39:09.960Z,99735.59
2022-11-21T19:41:36.796Z,99735.88
2022-11-21T19:44:03.854Z,99731.28
2022-11-21T19:46:36.727Z,99730.69
2022-11-21T19:49:04.057Z,99714.69
2022-11-21T19:51:33.554Z,99708.47
2022-11-21T19:54:02.281Z,99699.38
2022-11-21T19:56:28.891Z,99706.16
2022-11-21T19:58:56.834Z,99703.22
2022-11-21T20:01:25.807Z,99697.41
2022-11-21T20:03:54.940Z,99684.75
2022-11-21T20:06:24.500Z,99692.25
2022-11-21T20:08:54.035Z,99694.69
2022-11-21T20:11:21.463Z,99695.97
2022-11-21T20:13:49.258Z,99687.03
2022-11-21T20:16:19.935Z,99692.81
2022-11-21T20:18:46.868Z,99686.50
2022-11-21T20:21:14.067Z,99680.28
2022-11-21T20:23:40.556Z,99689.84
2022-11-21T20:26:08.856Z,99697.63
2022-11-21T20:28:36.686Z,99698.50
2022-11-21T20:31:19.721Z,99702.59
2022-11-21T20:33:51.429Z,99698.72
2022-11-21T20:36:20.318Z,99690.72
2022-11-21T20:39:00.937Z,99697.84
2022-11-21T20:41:30.216Z,99686.72
2022-11-21T20:46:45.518Z,99691.69
2022-11-21T20:49:12.560Z,99690.41
2022-11-21T20:54:26.591Z,99688.78
2022-11-21T20:56:53.188Z,99691.22
2022-11-21T20:59:19.583Z,99694.50
2022-11-21T21:01:46.092Z,99694.50
2022-11-21T21:04:12.542Z,99678.19
2022-11-21T21:06:39.547Z,99689.38
2022-11-21T21:09:06.078Z,99693.25
2022-11-21T21:14:19.150Z,99703.19
2022-11-21T21:16:45.709Z,99712.06
2022-11-21T21:19:12.110Z,99721.06
2022-11-21T21:21:40.178Z,99720.03
2022-11-21T21:24:09.566Z,99723.75
2022-11-21T21:26:43.223Z,99740.69
2022-11-21T21:29:12.244Z,99742.59
2022-11-21T21:31:38.989Z,99741.63
2022-11-21T21:34:05.448Z,99736.22
2022-11-21T21:36:32.425Z,99731.69
2022-11-21T21:38:59.978Z,99738.34
2022-11-21T21:41:27.972Z,99746.81
2022-11-21T21:43:55.856Z,99760.59
2022-11-21T21:46:24.492Z,99755.00
2022-11-21T21:48:56.321Z,99761.97
2022-11-21T21:51:22.779Z,99752.94
2022-11-21T21:53:50.794Z,99753.66
2022-11-21T21:56:18.673Z,99748.44
2022-11-21T21:58:47.164Z,99745.56
2022-11-21T22:01:22.834Z,99736.88
2022-11-21T22:03:53.022Z,99737.19
2022-11-21T22:06:19.833Z,99740.53
2022-11-21T22:08:47.989Z,99732.84
2022-11-21T22:11:17.165Z,99726.41
2022-11-21T22:13:45.961Z,99735.34
2022-11-21T22:16:13.174Z,99734.97
2022-11-21T22:18:40.511Z,99726.69
2022-11-21T22:21:17.681Z,99722.16
2022-11-21T22:24:02.911Z,99725.78
2022-11-21T22:26:31.474Z,99716.50
2022-11-21T22:28:57.961Z,99707.69
2022-11-21T22:31:24.437Z,99714.59
2022-11-21T22:33:50.896Z,99701.66
2022-11-21T22:36:18.632Z,99696.50
2022-11-21T22:38:45.258Z,99690.72
2022-11-21T22:41:17.167Z,99697.44
2022-11-21T22:43:44.918Z,99684.47
2022-11-21T22:46:12.799Z,99689.88
2022-11-21T22:48:40.231Z,99679.28
2022-11-21T22:51:07.395Z,99680.06
2022-11-21T22:53:39.759Z,99678.31
2022-11-21T22:56:10.948Z,99673.69
2022-11-21T22:58:39.626Z,99672.94
2022-11-21T23:01:10.682Z,99678.00
2022-11-21T23:03:37.306Z,99677.66
2022-11-21T23:06:12.089Z,99681.09
2022-11-21T23:08:39.917Z,99674.13
2022-11-21T23:11:18.017Z,99664.75
2022-11-21T23:13:46.372Z,99667.19
2022-11-21T23:16:13.516Z,99672.53
2022-11-21T23:18:40.453Z,99675.16
2022-11-21T23:21:07.597Z,99673.97
2022-11-21T23:23:34.474Z,99679.47
2022-11-21T23:26:01.118Z,99672.63
2022-11-21T23:28:27.632Z,99671.31
2022-11-21T23:30:54.992Z,99677.13
2022-11-21T23:33:21.737Z,99673.31
2022-11-21T23:35:48.453Z,99672.72
2022-11-21T23:38:16.418Z,99677.78
2022-11-21T23:40:45.209Z,99676.63
2022-11-21T23:43:12.180Z,99672.03
2022-11-21T23:45:38.940Z,99669.81
2022-11-21T23:48:05.467Z,99661.50
2022-11-21T23:50:31.952Z,99657.25
2022-11-21T23:52:58.506Z,99658.72
2022-11-21T23:55:24.900Z,99653.91
2022-11-21T23:57:51.654Z,99652.41
